createdAt,value
2019-01-06T00:00:30.780Z,1.62
2019-01-06T00:03:17.385Z,1.92
2019-01-06T00:05:58.057Z,1.60
2019-01-06T00:08:35.850Z,1.60
2019-01-06T00:11:23.486Z,1.55
2019-01-06T00:14:00.865Z,2.30
2019-01-06T00:16:38.465Z,1.32
2019-01-06T00:19:16.940Z,1.40
2019-01-06T00:22:04.639Z,1.67
2019-01-06T00:24:36.267Z,1.40
2019-01-06T00:27:13.746Z,1.80
2019-01-06T00:30:03.120Z,1.75
2019-01-06T00:32:41.239Z,1.27
2019-01-06T00:35:28.982Z,1.70
2019-01-06T00:38:07.882Z,1.45
2019-01-06T00:40:55.512Z,1.30
2019-01-06T00:43:27.266Z,1.62
2019-01-06T00:45:58.930Z,1.12
2019-01-06T00:48:39.589Z,1.17
2019-01-06T00:51:27.435Z,1.10
2019-01-06T00:54:15.467Z,1.37
2019-01-06T00:57:05.238Z,1.10
2019-01-06T00:59:52.061Z,1.20
2019-01-06T01:02:32.414Z,0.95
2019-01-06T01:05:02.534Z,0.90
2019-01-06T01:07:35.163Z,1.12
2019-01-06T01:10:16.077Z,1.02
2019-01-06T01:12:47.738Z,1.37
2019-01-06T01:15:35.880Z,1.07
2019-01-06T01:18:06.638Z,1.02
2019-01-06T01:20:42.565Z,1.00
2019-01-06T01:23:30.083Z,0.90
2019-01-06T01:26:16.111Z,1.12
2019-01-06T01:28:52.030Z,1.10
2019-01-06T01:31:23.803Z,0.90
2019-01-06T01:34:11.619Z,1.37
2019-01-06T01:36:59.462Z,0.88
2019-01-06T01:39:31.120Z,1.22
2019-01-06T01:42:09.014Z,1.35
2019-01-06T01:44:38.819Z,0.90
2019-01-06T01:47:10.380Z,1.02
2019-01-06T01:49:45.110Z,0.90
2019-01-06T01:52:32.944Z,0.80
2019-01-06T01:55:22.825Z,1.30
2019-01-06T01:58:07.676Z,1.02
2019-01-06T02:00:52.479Z,1.05
2019-01-06T02:03:40.581Z,1.42
2019-01-06T02:06:18.122Z,0.80
2019-01-06T02:09:05.966Z,0.80
2019-01-06T02:11:43.452Z,0.90
2019-01-06T02:14:27.390Z,1.10
2019-01-06T02:17:09.292Z,0.93
2019-01-06T02:19:57.230Z,0.93
2019-01-06T02:22:34.926Z,0.90
2019-01-06T02:25:15.581Z,0.98
2019-01-06T02:27:59.501Z,0.90
2019-01-06T02:30:31.199Z,1.00
2019-01-06T02:33:19.534Z,0.72
2019-01-06T02:35:51.181Z,1.00
2019-01-06T02:38:25.709Z,0.80
2019-01-06T02:41:13.665Z,0.95
2019-01-06T02:44:01.512Z,1.10
2019-01-06T02:46:38.933Z,1.35
2019-01-06T02:49:26.702Z,0.90
2019-01-06T02:52:01.537Z,1.00
2019-01-06T02:54:34.007Z,1.07
2019-01-06T02:57:22.047Z,1.32
2019-01-06T03:00:01.424Z,1.42
2019-01-06T03:02:45.516Z,1.05
2019-01-06T03:05:22.925Z,0.90
2019-01-06T03:08:00.508Z,1.05
2019-01-06T03:10:32.165Z,1.00
2019-01-06T03:13:19.781Z,0.72
2019-01-06T03:16:03.521Z,0.93
2019-01-06T03:18:35.286Z,0.85
2019-01-06T03:21:23.216Z,1.22
2019-01-06T03:24:02.140Z,1.37
2019-01-06T03:26:39.523Z,0.80
2019-01-06T03:29:27.257Z,1.12
2019-01-06T03:32:16.935Z,0.88
2019-01-06T03:34:51.868Z,1.05
2019-01-06T03:37:32.848Z,0.93
2019-01-06T03:40:20.487Z,0.85
2019-01-06T03:43:08.118Z,0.90
2019-01-06T03:45:47.072Z,0.65
2019-01-06T03:48:34.649Z,1.05
2019-01-06T03:51:15.138Z,0.82
2019-01-06T03:53:46.763Z,0.70
2019-01-06T03:56:16.474Z,0.70
2019-01-06T03:58:54.094Z,0.75
2019-01-06T04:01:40.948Z,0.80
2019-01-06T04:04:14.183Z,0.50
2019-01-06T04:07:01.811Z,0.75
2019-01-06T04:09:42.681Z,0.70
2019-01-06T04:12:24.473Z,0.82
2019-01-06T04:14:56.228Z,0.80
2019-01-06T04:17:43.106Z,0.90
2019-01-06T04:20:23.602Z,0.70
2019-01-06T04:23:04.372Z,0.80
2019-01-06T04:25:48.317Z,0.70
2019-01-06T04:28:26.013Z,0.85
2019-01-06T04:31:03.401Z,0.60
2019-01-06T04:33:35.046Z,0.60
2019-01-06T04:36:22.670Z,0.60
2019-01-06T04:38:54.234Z,0.60
2019-01-06T04:41:41.862Z,0.70
2019-01-06T04:44:31.528Z,0.70
2019-01-06T04:47:15.263Z,0.50
2019-01-06T04:49:51.023Z,0.70
2019-01-06T04:52:38.047Z,0.88
2019-01-06T04:55:25.979Z,0.70
2019-01-06T04:57:57.621Z,0.70
2019-01-06T05:00:41.565Z,0.62
2019-01-06T05:03:22.444Z,0.75
2019-01-06T05:05:52.265Z,1.20
2019-01-06T05:08:29.908Z,0.90
2019-01-06T05:11:01.495Z,0.80
2019-01-06T05:13:42.200Z,0.93
2019-01-06T05:16:11.986Z,0.88
2019-01-06T05:18:43.611Z,0.93
2019-01-06T05:21:24.292Z,0.70
2019-01-06T05:23:55.948Z,0.90
2019-01-06T05:26:36.735Z,0.80
2019-01-06T05:29:08.368Z,0.70
2019-01-06T05:31:48.944Z,0.78
2019-01-06T05:34:35.541Z,1.05
2019-01-06T05:37:10.069Z,0.80
2019-01-06T05:39:50.631Z,0.90
2019-01-06T05:42:22.389Z,0.90
2019-01-06T05:45:02.944Z,0.85
2019-01-06T05:47:37.678Z,0.82
2019-01-06T05:50:27.753Z,0.82
2019-01-06T05:53:17.444Z,1.07
2019-01-06T05:55:51.649Z,1.07
2019-01-06T05:58:29.458Z,0.70
2019-01-06T06:01:17.279Z,1.00
2019-01-06T06:03:54.678Z,0.90
2019-01-06T06:06:26.321Z,0.82
2019-01-06T06:09:00.947Z,0.75
2019-01-06T06:11:47.826Z,1.00
2019-01-06T06:14:19.513Z,0.98
2019-01-06T06:16:56.911Z,1.00
2019-01-06T06:19:45.165Z,0.72
2019-01-06T06:22:16.799Z,0.90
2019-01-06T06:24:54.292Z,1.00
2019-01-06T06:27:26.466Z,1.20
2019-01-06T06:29:58.073Z,1.35
2019-01-06T06:32:45.743Z,1.02
2019-01-06T06:35:24.460Z,0.90
2019-01-06T06:37:54.591Z,1.30
2019-01-06T06:40:26.242Z,1.00
2019-01-06T06:43:03.940Z,0.90
2019-01-06T06:45:35.598Z,0.82
2019-01-06T06:48:23.524Z,0.90
2019-01-06T06:51:05.530Z,0.90
2019-01-06T06:53:39.939Z,0.80
2019-01-06T06:56:17.645Z,0.90
2019-01-06T06:58:55.441Z,0.90
2019-01-06T07:01:34.252Z,1.50
2019-01-06T07:04:07.037Z,1.10
2019-01-06T07:06:39.508Z,0.80
2019-01-06T07:09:18.127Z,0.90
2019-01-06T07:12:05.870Z,0.80
2019-01-06T07:14:35.770Z,0.90
2019-01-06T07:18:06.218Z,1.05
2019-01-06T07:20:52.004Z,0.70
2019-01-06T07:23:26.623Z,1.00
2019-01-06T07:25:56.732Z,0.75
2019-01-06T07:28:28.497Z,0.80
2019-01-06T07:31:18.302Z,0.78
2019-01-06T07:33:50.422Z,0.72
2019-01-06T07:36:34.070Z,0.95
2019-01-06T07:39:23.961Z,0.80
2019-01-06T07:42:11.927Z,0.75
2019-01-06T07:44:43.858Z,0.80
2019-01-06T07:47:27.486Z,0.80
2019-01-06T07:50:08.250Z,0.85
2019-01-06T07:52:55.982Z,0.80
2019-01-06T07:55:27.647Z,0.80
2019-01-06T07:57:59.291Z,0.75
2019-01-06T08:00:31.972Z,1.00
2019-01-06T08:03:15.609Z,0.90
2019-01-06T08:05:45.420Z,1.00
2019-01-06T08:08:21.179Z,1.00
2019-01-06T08:11:09.593Z,1.10
2019-01-06T08:13:50.488Z,1.02
2019-01-06T08:16:20.337Z,1.02
2019-01-06T08:18:58.088Z,0.90
2019-01-06T08:21:46.133Z,1.10
2019-01-06T08:24:36.118Z,0.85
2019-01-06T08:27:05.830Z,1.02
2019-01-06T08:29:37.496Z,0.78
2019-01-06T08:32:25.099Z,1.00
2019-01-06T08:34:59.847Z,1.10
2019-01-06T08:37:34.575Z,1.27
2019-01-06T08:40:15.547Z,1.30
2019-01-06T08:43:05.296Z,1.35
2019-01-06T08:45:50.079Z,0.80
2019-01-06T08:48:21.731Z,1.10
2019-01-06T08:51:09.260Z,1.32
2019-01-06T08:53:53.146Z,1.02
2019-01-06T08:56:40.930Z,1.22
2019-01-06T08:59:10.786Z,1.00
2019-01-06T09:01:45.281Z,1.30
2019-01-06T09:04:33.369Z,1.25
2019-01-06T09:07:10.945Z,1.12
2019-01-06T09:09:45.806Z,1.10
2019-01-06T09:12:15.065Z,1.10
2019-01-06T09:14:46.690Z,1.00
2019-01-06T09:17:16.483Z,1.40
2019-01-06T09:19:50.555Z,1.50
2019-01-06T09:22:21.647Z,1.47
2019-01-06T09:24:53.240Z,1.32
2019-01-06T09:27:41.253Z,1.40
2019-01-06T09:30:25.189Z,1.60
2019-01-06T09:32:59.621Z,1.77
2019-01-06T09:35:34.911Z,1.62
2019-01-06T09:38:22.885Z,3.72
2019-01-06T09:41:11.024Z,4.97
2019-01-06T09:43:55.714Z,3.72
2019-01-06T09:46:28.351Z,3.65
2019-01-06T09:49:18.440Z,4.55
2019-01-06T09:51:59.319Z,4.28
2019-01-06T09:54:47.049Z,3.40
2019-01-06T09:57:34.977Z,3.55
2019-01-06T10:00:06.543Z,3.35
2019-01-06T10:02:56.910Z,2.87
2019-01-06T10:05:44.860Z,3.60
2019-01-06T10:08:28.596Z,3.05
2019-01-06T10:11:07.234Z,3.27
2019-01-06T10:13:55.160Z,3.58
2019-01-06T10:16:32.796Z,3.27
2019-01-06T10:19:14.027Z,3.40
2019-01-06T10:22:01.882Z,3.42
2019-01-06T10:24:52.025Z,2.83
2019-01-06T10:27:26.976Z,3.05
2019-01-06T10:29:58.835Z,3.02
2019-01-06T10:32:39.811Z,2.90
2019-01-06T10:35:11.471Z,2.83
2019-01-06T10:37:43.054Z,2.95
2019-01-06T10:40:23.991Z,2.72
2019-01-06T10:43:11.722Z,2.77
2019-01-06T10:45:49.731Z,2.75
2019-01-06T10:48:28.662Z,2.85
2019-01-06T10:51:16.806Z,2.77
2019-01-06T10:53:46.604Z,2.77
2019-01-06T10:56:21.035Z,2.95
2019-01-06T10:59:08.663Z,2.22
2019-01-06T11:01:56.792Z,2.55
2019-01-06T11:04:34.699Z,2.67
2019-01-06T11:07:18.438Z,2.80
2019-01-06T11:10:06.371Z,2.67
2019-01-06T11:12:54.412Z,2.52
2019-01-06T11:15:28.834Z,2.70
2019-01-06T11:18:16.660Z,3.15
2019-01-06T11:20:49.192Z,2.62
2019-01-06T11:23:26.634Z,2.47
2019-01-06T11:25:59.501Z,2.60
2019-01-06T11:28:37.012Z,2.58
2019-01-06T11:31:10.783Z,2.55
2019-01-06T11:33:55.114Z,2.67
2019-01-06T11:36:27.414Z,2.80
2019-01-06T11:39:02.131Z,2.27
2019-01-06T11:44:10.266Z,2.60
2019-01-06T11:46:41.871Z,2.92
2019-01-06T11:49:23.263Z,2.40
2019-01-06T11:52:04.215Z,2.10
2019-01-06T11:54:38.634Z,2.25
2019-01-06T11:57:25.605Z,2.50
2019-01-06T12:00:00.298Z,2.30
2019-01-06T12:02:39.077Z,2.17
2019-01-06T12:05:11.247Z,2.22
2019-01-06T12:08:00.897Z,1.87
2019-01-06T12:10:35.379Z,2.22
2019-01-06T12:13:12.638Z,2.20
2019-01-06T12:15:47.264Z,2.00
2019-01-06T12:18:24.949Z,2.33
2019-01-06T12:20:59.381Z,2.05
2019-01-06T12:23:37.075Z,2.30
2019-01-06T12:26:12.982Z,2.40
2019-01-06T12:29:00.692Z,2.10
2019-01-06T12:31:48.690Z,1.80
2019-01-06T12:34:35.917Z,2.30
2019-01-06T12:37:11.677Z,2.27
2019-01-06T12:39:49.251Z,2.12
2019-01-06T12:42:36.944Z,2.12
2019-01-06T12:45:17.856Z,2.25
2019-01-06T12:48:04.872Z,2.45
2019-01-06T12:50:42.678Z,2.30
2019-01-06T12:53:20.371Z,1.90
2019-01-06T12:55:55.230Z,1.92
2019-01-06T12:58:29.920Z,2.02
2019-01-06T13:01:01.583Z,2.27
2019-01-06T13:03:36.102Z,2.10
2019-01-06T13:06:26.296Z,2.10
2019-01-06T13:09:04.200Z,1.87
2019-01-06T13:11:51.921Z,1.80
2019-01-06T13:14:26.212Z,1.70
2019-01-06T13:17:14.169Z,2.00
2019-01-06T13:20:04.058Z,2.37
2019-01-06T13:22:39.597Z,1.82
2019-01-06T13:25:27.337Z,1.90
2019-01-06T13:28:15.066Z,1.80
2019-01-06T13:30:46.734Z,2.10
2019-01-06T13:33:34.763Z,2.15
2019-01-06T13:36:08.043Z,2.08
2019-01-06T13:38:46.880Z,2.15
2019-01-06T13:41:19.898Z,1.80
2019-01-06T13:44:04.007Z,2.08
2019-01-06T13:46:53.479Z,1.82
2019-01-06T13:49:28.197Z,1.95
2019-01-06T13:52:05.792Z,2.33
2019-01-06T13:54:53.533Z,2.30
2019-01-06T13:57:35.528Z,2.33
2019-01-06T14:00:23.774Z,2.25
2019-01-06T14:02:55.429Z,3.33
2019-01-06T14:05:33.224Z,3.47
2019-01-06T14:08:03.193Z,3.40
2019-01-06T14:10:41.685Z,3.58
2019-01-06T14:13:13.309Z,3.50
2019-01-06T14:15:57.145Z,3.25
2019-01-06T14:18:46.929Z,3.33
2019-01-06T14:21:34.662Z,3.90
2019-01-06T14:24:22.087Z,4.10
2019-01-06T14:27:00.785Z,3.42
2019-01-06T14:29:35.226Z,3.00
2019-01-06T14:32:25.405Z,3.70
2019-01-06T14:35:13.144Z,3.58
2019-01-06T14:38:01.073Z,3.37
2019-01-06T14:40:37.234Z,3.67
2019-01-06T14:43:23.940Z,3.45
2019-01-06T14:46:07.376Z,3.92
2019-01-06T14:48:42.100Z,2.98
2019-01-06T14:51:22.634Z,3.20
2019-01-06T14:53:54.324Z,3.67
2019-01-06T14:56:36.318Z,3.15
2019-01-06T14:59:09.406Z,3.92
2019-01-06T15:01:42.179Z,3.27
2019-01-06T15:04:21.000Z,2.95
2019-01-06T15:06:52.659Z,3.00
2019-01-06T15:09:33.434Z,2.80
2019-01-06T15:12:03.235Z,3.15
2019-01-06T15:14:50.251Z,2.75
2019-01-06T15:17:24.989Z,2.98
2019-01-06T15:20:12.862Z,3.10
2019-01-06T15:22:50.520Z,3.65
2019-01-06T15:25:31.480Z,2.98
2019-01-06T15:28:19.527Z,2.90
2019-01-06T15:31:09.376Z,3.33
2019-01-06T15:33:44.030Z,3.10
2019-01-06T15:36:31.958Z,2.90
2019-01-06T15:39:03.831Z,2.72
2019-01-06T15:41:38.238Z,2.62
2019-01-06T15:44:09.890Z,3.12
2019-01-06T15:46:53.843Z,2.80
2019-01-06T15:49:28.464Z,3.55
2019-01-06T15:52:16.087Z,3.37
2019-01-06T15:54:47.845Z,2.70
2019-01-06T15:57:19.408Z,2.72
2019-01-06T15:59:56.997Z,2.90
2019-01-06T16:02:42.057Z,3.10
2019-01-06T16:05:11.869Z,3.05
2019-01-06T16:07:59.507Z,2.47
2019-01-06T16:10:31.256Z,3.42
2019-01-06T16:13:05.582Z,2.75
2019-01-06T16:15:37.265Z,3.55
2019-01-06T16:18:24.967Z,3.05
2019-01-06T16:21:13.104Z,3.20
2019-01-06T16:23:42.907Z,3.17
2019-01-06T16:26:26.462Z,2.77
2019-01-06T16:29:07.316Z,3.33
2019-01-06T16:31:37.050Z,2.60
2019-01-06T16:34:08.685Z,2.90
2019-01-06T16:36:40.443Z,2.90
2019-01-06T16:39:23.969Z,2.75
2019-01-06T16:41:55.831Z,3.50
2019-01-06T16:44:28.410Z,2.65
2019-01-06T16:46:58.227Z,2.75
2019-01-06T16:49:35.818Z,3.10
2019-01-06T16:52:23.450Z,3.12
2019-01-06T16:55:11.704Z,3.25
2019-01-06T16:57:49.374Z,3.10
2019-01-06T17:00:20.579Z,3.58
2019-01-06T17:02:58.327Z,3.08
2019-01-06T17:05:32.835Z,3.30
2019-01-06T17:08:19.452Z,3.27
2019-01-06T17:11:07.422Z,3.52
2019-01-06T17:13:55.323Z,3.20
2019-01-06T17:16:27.286Z,3.65
2019-01-06T17:19:15.147Z,3.25
2019-01-06T17:22:13.540Z,3.33
2019-01-06T17:25:03.012Z,3.33
2019-01-06T17:27:42.106Z,3.45
2019-01-06T17:30:30.243Z,3.33
2019-01-06T17:33:10.187Z,3.47
2019-01-06T17:35:48.519Z,4.08
2019-01-06T17:38:20.560Z,3.30
2019-01-06T17:40:59.520Z,3.45
2019-01-06T17:43:45.917Z,3.70
2019-01-06T17:46:21.605Z,3.52
2019-01-06T17:48:54.720Z,3.42
2019-01-06T17:51:42.802Z,3.62
2019-01-06T17:54:30.786Z,3.83
2019-01-06T17:57:12.420Z,3.70
2019-01-06T17:59:55.466Z,3.55
2019-01-06T18:02:45.582Z,3.60
2019-01-06T18:05:21.203Z,4.05
2019-01-06T18:08:04.951Z,3.70
2019-01-06T18:10:52.715Z,3.80
2019-01-06T18:13:25.630Z,3.80
2019-01-06T18:16:02.319Z,3.65
2019-01-06T18:18:37.629Z,3.87
2019-01-06T18:21:07.430Z,3.40
2019-01-06T18:23:45.235Z,3.98
2019-01-06T18:26:35.807Z,3.92
2019-01-06T18:29:16.071Z,3.67
2019-01-06T18:31:47.844Z,3.17
2019-01-06T18:34:35.474Z,3.58
2019-01-06T18:37:07.206Z,3.75
2019-01-06T18:39:40.007Z,3.00
2019-01-06T18:42:20.569Z,3.58
2019-01-06T18:45:09.780Z,3.58
2019-01-06T18:47:47.211Z,3.60
2019-01-06T18:50:34.022Z,3.98
2019-01-06T18:53:06.392Z,4.28
2019-01-06T18:55:54.438Z,3.50
2019-01-06T18:58:42.379Z,3.30
2019-01-06T19:01:12.199Z,4.12
2019-01-06T19:04:00.116Z,3.92
2019-01-06T19:06:43.660Z,3.65
2019-01-06T19:09:21.027Z,3.37
2019-01-06T19:12:07.949Z,3.92
2019-01-06T19:14:39.606Z,3.62
2019-01-06T19:17:20.267Z,3.65
2019-01-06T19:19:54.270Z,3.92
2019-01-06T19:22:29.220Z,3.35
2019-01-06T19:25:01.898Z,3.60
2019-01-06T19:27:42.782Z,3.85
2019-01-06T19:30:17.294Z,3.50
2019-01-06T19:32:48.951Z,3.52
2019-01-06T19:35:20.599Z,3.12
2019-01-06T19:37:55.019Z,3.67
2019-01-06T19:40:35.678Z,3.55
2019-01-06T19:43:09.143Z,4.10
2019-01-06T19:45:53.937Z,3.75
2019-01-06T19:48:25.863Z,4.47
2019-01-06T19:51:13.532Z,3.62
2019-01-06T19:53:43.448Z,3.45
2019-01-06T19:56:15.087Z,3.85
2019-01-06T19:59:02.122Z,3.90
2019-01-06T20:01:38.315Z,3.52
2019-01-06T20:04:13.210Z,3.55
2019-01-06T20:06:59.924Z,3.50
2019-01-06T20:09:40.988Z,3.47
2019-01-06T20:12:29.106Z,4.05
2019-01-06T20:15:12.768Z,4.12
2019-01-06T20:17:50.259Z,3.87
2019-01-06T20:20:24.909Z,3.92
2019-01-06T20:23:12.708Z,3.35
2019-01-06T20:25:50.576Z,3.50
2019-01-06T20:28:27.994Z,3.67
2019-01-06T20:31:16.142Z,4.15
2019-01-06T20:34:04.091Z,3.55
2019-01-06T20:36:36.103Z,4.15
2019-01-06T20:39:07.906Z,4.20
2019-01-06T20:41:42.315Z,4.10
2019-01-06T20:44:13.986Z,3.83
2019-01-06T20:47:01.816Z,4.40
2019-01-06T20:49:43.606Z,4.45
2019-01-06T20:52:22.427Z,4.50
2019-01-06T20:54:52.238Z,3.87
2019-01-06T20:57:25.043Z,4.58
2019-01-06T21:00:02.613Z,3.65
2019-01-06T21:02:43.488Z,4.28
2019-01-06T21:05:31.422Z,4.58
2019-01-06T21:08:03.256Z,4.33
2019-01-06T21:10:34.935Z,4.33
2019-01-06T21:13:04.844Z,4.42
2019-01-06T21:15:52.681Z,4.53
2019-01-06T21:18:24.859Z,4.05
2019-01-06T21:21:11.725Z,3.90
2019-01-06T21:23:59.397Z,4.75
2019-01-06T21:26:47.322Z,4.58
2019-01-06T21:29:22.977Z,4.45
2019-01-06T21:31:57.417Z,4.25
2019-01-06T21:34:47.546Z,4.53
2019-01-06T21:37:35.209Z,4.40
2019-01-06T21:40:10.758Z,4.78
2019-01-06T21:42:48.561Z,4.50
2019-01-06T21:45:35.848Z,4.30
2019-01-06T21:48:13.259Z,4.85
2019-01-06T21:50:45.012Z,4.25
2019-01-06T21:53:14.849Z,5.20
2019-01-06T21:56:02.770Z,4.95
2019-01-06T21:58:37.796Z,4.85
2019-01-06T22:01:12.802Z,4.67
2019-01-06T22:03:42.548Z,5.00
2019-01-06T22:06:30.440Z,5.08
2019-01-06T22:09:03.382Z,4.78
2019-01-06T22:11:51.508Z,5.70
2019-01-06T22:14:26.119Z,5.50
2019-01-06T22:17:16.108Z,5.08
2019-01-06T22:20:04.046Z,5.65
2019-01-06T22:22:35.693Z,6.62
2019-01-06T22:25:24.706Z,5.12
2019-01-06T22:27:56.892Z,5.25
2019-01-06T22:30:44.965Z,5.40
2019-01-06T22:33:23.216Z,5.72
2019-01-06T22:36:08.145Z,4.80
2019-01-06T22:38:45.942Z,4.62
2019-01-06T22:41:33.549Z,5.30
2019-01-06T22:44:21.508Z,4.75
2019-01-06T22:47:05.101Z,5.08
2019-01-06T22:49:39.464Z,4.60
2019-01-06T22:52:17.978Z,4.90
2019-01-06T22:54:50.541Z,4.05
2019-01-06T22:57:38.587Z,5.00
2019-01-06T23:00:26.653Z,5.17
2019-01-06T23:03:01.321Z,4.58
2019-01-06T23:05:35.781Z,4.33
2019-01-06T23:08:16.441Z,3.98
2019-01-06T23:10:57.408Z,4.40
2019-01-06T23:13:31.834Z,4.45
2019-01-06T23:16:15.369Z,4.50
2019-01-06T23:19:03.335Z,4.90
2019-01-06T23:21:50.410Z,4.42
2019-01-06T23:24:20.309Z,3.95
2019-01-06T23:26:58.455Z,4.15
2019-01-06T23:29:30.095Z,4.28
2019-01-06T23:31:59.896Z,4.65
2019-01-06T23:34:31.667Z,4.10
2019-01-06T23:37:07.822Z,4.03
2019-01-06T23:39:53.396Z,4.45
2019-01-06T23:42:25.168Z,4.12
2019-01-06T23:45:12.980Z,3.87
2019-01-06T23:47:57.153Z,3.98
2019-01-06T23:50:30.103Z,3.60
2019-01-06T23:53:07.539Z,4.40
2019-01-06T23:55:43.460Z,4.03
2019-01-06T23:58:17.878Z,4.30
